Time;durP1;ratioP1;P1;durP2;ratioP2;P2;SDS_P1;SDS_P2;PMS_P1;PMS_P2;Temp;Humidity;BMP_temperature;BMP_pressure;BME280_temperature;BME280_humidity;BME280_pressure;Samples;Min_cycle;Max_cycle;Signal;HPM_P1;HPM_P2
2023/01/20 00:01:29;;;;;;;1999.90;999.90;;;1.60;99.90;;;;;;5013752;28;20045;-78
2023/01/20 00:03:55;;;;;;;1999.90;999.90;;;1.70;99.90;;;;;;5013756;28;20037;-78
2023/01/20 00:06:22;;;;;;;1999.90;999.90;;;1.70;99.90;;;;;;5013860;28;20053;-78
2023/01/20 00:08:52;;;;;;;1999.90;999.90;;;1.70;99.90;;;;;;5029219;28;20489;-78
2023/01/20 00:11:18;;;;;;;1999.90;999.90;;;1.60;99.90;;;;;;5013724;28;20038;-78
2023/01/20 00:13:44;;;;;;;1999.90;999.90;;;1.50;99.90;;;;;;5013365;28;20504;-78
2023/01/20 00:16:11;;;;;;;1999.90;999.90;;;1.60;99.90;;;;;;5013453;28;20026;-78
2023/01/20 00:18:37;;;;;;;1999.90;999.90;;;1.50;99.90;;;;;;5012311;28;20028;-78
2023/01/20 00:21:05;;;;;;;1999.90;999.90;;;1.50;99.90;;;;;;5013289;28;20049;-78
2023/01/20 00:23:30;;;;;;;1999.90;999.90;;;1.50;99.90;;;;;;5011789;28;20048;-78
2023/01/20 00:25:56;;;;;;;1999.90;999.90;;;1.50;99.90;;;;;;5013044;28;20493;-78
2023/01/20 00:28:22;;;;;;;1999.90;999.90;;;1.50;99.90;;;;;;5012472;28;20038;-78
2023/01/20 00:30:47;;;;;;;1999.90;999.90;;;1.50;99.90;;;;;;5013105;28;20026;-78
2023/01/20 00:33:13;;;;;;;1999.90;999.90;;;1.50;99.90;;;;;;5013257;28;20030;-78
2023/01/20 00:35:38;;;;;;;1999.90;999.90;;;1.40;99.90;;;;;;5013309;28;20022;-78
2023/01/20 00:38:04;;;;;;;1999.90;999.90;;;1.40;99.90;;;;;;5013234;28;20053;-78
2023/01/20 00:40:30;;;;;;;1999.90;999.90;;;1.40;99.90;;;;;;5012925;28;20113;-78
2023/01/20 00:42:55;;;;;;;1999.90;999.90;;;1.30;99.90;;;;;;4993161;28;20109;-78
2023/01/20 00:45:21;;;;;;;1999.90;999.90;;;1.40;99.90;;;;;;4993293;28;20034;-78
2023/01/20 00:47:47;;;;;;;1999.90;999.90;;;1.40;99.90;;;;;;4993120;28;20097;-78
2023/01/20 00:50:12;;;;;;;1999.90;999.90;;;1.40;99.90;;;;;;4993057;28;20031;-78
2023/01/20 00:52:38;;;;;;;1999.90;999.90;;;1.30;99.90;;;;;;4993519;28;20031;-78
2023/01/20 00:55:04;;;;;;;1999.90;999.90;;;1.30;99.90;;;;;;4996657;28;20022;-79
2023/01/20 00:57:29;;;;;;;1999.90;999.90;;;1.30;99.90;;;;;;5000896;28;20029;-78
2023/01/20 00:59:55;;;;;;;1999.90;999.90;;;1.30;99.90;;;;;;5017151;28;20022;-78
2023/01/20 01:02:20;;;;;;;1999.90;999.90;;;1.30;99.90;;;;;;5017001;28;20502;-78
2023/01/20 01:04:49;;;;;;;1999.90;999.90;;;1.40;99.90;;;;;;5015821;28;20030;-79
2023/01/20 01:07:16;;;;;;;1999.90;999.90;;;1.50;99.90;;;;;;5017122;28;20382;-79
2023/01/20 01:09:41;;;;;;;1999.90;999.90;;;1.60;99.90;;;;;;5015682;28;20095;-78
2023/01/20 01:12:07;;;;;;;1999.90;999.90;;;1.50;99.90;;;;;;5017210;28;20505;-78
2023/01/20 01:14:33;;;;;;;1999.90;999.90;;;1.50;99.90;;;;;;5017000;28;20022;-78
2023/01/20 01:16:58;;;;;;;1999.90;999.90;;;1.40;99.90;;;;;;5016843;28;20026;-78
2023/01/20 01:19:24;;;;;;;1999.90;999.90;;;1.40;99.90;;;;;;5016765;28;20026;-78
2023/01/20 01:21:50;;;;;;;1999.90;999.90;;;1.30;99.90;;;;;;5016372;28;20046;-78
2023/01/20 01:24:15;;;;;;;1999.90;999.90;;;1.20;99.90;;;;;;5015418;28;20503;-78
2023/01/20 01:26:41;;;;;;;1999.90;999.90;;;1.20;99.90;;;;;;5016555;28;20022;-78
2023/01/20 01:29:06;;;;;;;1999.90;999.90;;;1.20;99.90;;;;;;5015989;28;20018;-78
2023/01/20 01:31:32;;;;;;;1999.90;999.90;;;1.30;99.90;;;;;;5016145;28;20489;-78
2023/01/20 01:33:58;;;;;;;1999.90;999.90;;;1.20;99.90;;;;;;5016121;28;20065;-78
2023/01/20 01:36:23;;;;;;;1999.90;999.90;;;1.30;99.90;;;;;;5015950;28;20505;-78
2023/01/20 01:38:49;;;;;;;1999.90;999.90;;;1.30;99.90;;;;;;5016379;28;20025;-78
2023/01/20 01:41:15;;;;;;;1999.90;999.90;;;1.30;99.90;;;;;;5015963;28;20504;-78
2023/01/20 01:44:04;;;;;;;1999.90;999.90;;;1.30;99.90;;;;;;5015727;28;20436;-79
2023/01/20 01:46:30;;;;;;;1999.90;999.90;;;1.30;99.90;;;;;;5014733;28;20026;-78
2023/01/20 01:48:57;;;;;;;1999.90;999.90;;;1.30;99.90;;;;;;5015993;28;20076;-78
2023/01/20 01:51:27;;;;;;;1999.90;999.90;;;1.30;99.90;;;;;;5015849;28;20034;-78
2023/01/20 01:53:58;;;;;;;1999.90;999.90;;;1.20;99.90;;;;;;5015655;28;20029;-78
2023/01/20 01:56:26;;;;;;;1999.90;999.90;;;1.20;99.90;;;;;;5015540;28;20378;-78
2023/01/20 01:58:55;;;;;;;1999.90;999.90;;;1.20;99.90;;;;;;5015847;28;20022;-78
2023/01/20 02:01:21;;;;;;;1999.90;999.90;;;1.20;99.90;;;;;;5015756;28;20029;-78
2023/01/20 02:04:01;;;;;;;1999.90;999.90;;;1.20;99.90;;;;;;5015565;28;20022;-78
2023/01/20 02:06:31;;;;;;;1999.90;999.90;;;1.10;99.90;;;;;;5014109;28;20033;-78
2023/01/20 02:08:57;;;;;;;1999.90;999.90;;;1.10;99.90;;;;;;5016096;28;20550;-78
2023/01/20 02:11:23;;;;;;;1999.90;999.90;;;1.10;99.90;;;;;;5014298;28;20503;-78
2023/01/20 02:13:49;;;;;;;1999.90;999.90;;;1.00;99.90;;;;;;5015642;28;20030;-79
2023/01/20 02:16:43;;;;;;;1999.90;999.90;;;1.00;99.90;;;;;;5015913;28;20030;-78
2023/01/20 02:19:14;;;;;;;1999.90;999.90;;;1.00;99.90;;;;;;5015600;28;20041;-78
2023/01/20 02:21:57;;;;;;;1999.90;999.90;;;0.90;99.90;;;;;;5015361;28;20061;-78
2023/01/20 02:24:32;;;;;;;1999.90;999.90;;;0.90;99.90;;;;;;5015630;28;20026;-78
2023/01/20 02:27:06;;;;;;;1999.90;999.90;;;1.00;99.90;;;;;;5015715;28;20080;-79
2023/01/20 02:30:10;;;;;;;1999.90;999.90;;;1.00;99.90;;;;;;5014195;28;20049;-78
2023/01/20 02:32:39;;;;;;;1999.90;999.90;;;0.90;99.90;;;;;;5014257;28;20033;-78
2023/01/20 02:35:24;;;;;;;1999.90;999.90;;;0.90;99.90;;;;;;5015521;28;20033;-78
2023/01/20 02:38:12;;;;;;;1999.90;999.90;;;0.90;99.90;;;;;;5015086;28;20057;-78
2023/01/20 02:41:03;;;;;;;1999.90;999.90;;;0.80;99.90;;;;;;5015111;28;20104;-78
2023/01/20 02:43:43;;;;;;;1999.90;999.90;;;0.80;99.90;;;;;;5015093;28;20022;-78
2023/01/20 02:46:35;;;;;;;1999.90;999.90;;;0.80;99.90;;;;;;5015253;28;20018;-78
2023/01/20 02:49:26;;;;;;;1999.90;999.90;;;0.80;99.90;;;;;;5015467;28;20041;-79
2023/01/20 02:52:07;;;;;;;1999.90;999.90;;;0.80;99.90;;;;;;5014936;28;20029;-78
2023/01/20 02:54:36;;;;;;;1999.90;999.90;;;0.80;99.90;;;;;;5014771;28;20034;-78
2023/01/20 02:57:05;;;;;;;1999.90;999.90;;;0.80;99.90;;;;;;5015099;28;20037;-78
2023/01/20 02:59:37;;;;;;;1999.90;999.90;;;0.80;99.90;;;;;;4995308;28;20044;-78
2023/01/20 03:02:09;;;;;;;1999.90;999.90;;;0.80;99.90;;;;;;4994888;28;20621;-79
2023/01/20 03:04:50;;;;;;;1999.90;999.90;;;0.80;99.90;;;;;;4994897;28;20022;-78
2023/01/20 03:07:19;;;;;;;1999.90;999.90;;;0.80;99.90;;;;;;4994971;28;20053;-78
2023/01/20 03:09:49;;;;;;;1999.90;999.90;;;0.80;99.90;;;;;;4994749;28;20025;-78
2023/01/20 03:12:25;;;;;;;1999.90;999.90;;;0.80;99.90;;;;;;4994878;28;20041;-78
2023/01/20 03:14:51;;;;;;;1999.90;999.90;;;0.80;99.90;;;;;;4995004;28;20018;-79
2023/01/20 03:17:20;;;;;;;1999.90;999.90;;;0.80;99.90;;;;;;4993925;28;20022;-78
2023/01/20 03:19:46;;;;;;;1999.90;999.90;;;0.80;99.90;;;;;;4993274;28;20025;-78
2023/01/20 03:22:12;;;;;;;1999.90;999.90;;;0.80;99.90;;;;;;4994643;28;20052;-78
2023/01/20 03:24:40;;;;;;;1999.90;999.90;;;0.80;99.90;;;;;;5008144;28;20105;-78
2023/01/20 03:27:06;;;;;;;1999.90;999.90;;;0.90;99.90;;;;;;5014329;28;20029;-78
2023/01/20 03:29:31;;;;;;;1999.90;999.90;;;0.80;99.90;;;;;;5013743;28;20390;-79
2023/01/20 03:31:59;;;;;;;1999.90;999.90;;;0.80;99.90;;;;;;5013961;28;20050;-78
2023/01/20 03:34:28;;;;;;;1999.90;999.90;;;0.80;99.90;;;;;;5013914;28;20113;-78
2023/01/20 03:36:54;;;;;;;1999.90;999.90;;;0.80;99.90;;;;;;5013760;28;20029;-78
2023/01/20 03:39:22;;;;;;;1999.90;999.90;;;0.80;99.90;;;;;;5012613;28;20022;-78
2023/01/20 03:41:56;;;;;;;1999.90;999.90;;;0.90;99.90;;;;;;5013340;28;20030;-79
2023/01/20 03:44:54;;;;;;;1999.90;999.90;;;0.80;99.90;;;;;;5014165;28;20393;-79
2023/01/20 03:47:33;;;;;;;1999.90;999.90;;;0.80;99.90;;;;;;5002071;28;20045;-78
2023/01/20 03:50:01;;;;;;;1999.90;999.90;;;0.70;99.90;;;;;;5014066;28;20014;-78
2023/01/20 03:52:40;;;;;;;1999.90;999.90;;;0.70;99.90;;;;;;5012418;28;20481;-78
2023/01/20 03:55:16;;;;;;;1999.90;999.90;;;0.60;99.90;;;;;;5013717;28;20026;-78
2023/01/20 03:57:50;;;;;;;1999.90;999.90;;;0.50;99.90;;;;;;5013457;28;20026;-78
2023/01/20 04:00:18;;;;;;;1999.90;999.90;;;0.60;99.90;;;;;;5013483;28;20025;-78
2023/01/20 04:02:44;;;;;;;1999.90;999.90;;;0.60;99.90;;;;;;5013415;28;20052;-78
2023/01/20 04:05:11;;;;;;;1999.90;999.90;;;0.60;99.90;;;;;;5013308;28;20499;-78
2023/01/20 04:07:40;;;;;;;1999.90;999.90;;;0.50;99.90;;;;;;5014859;28;20029;-79
2023/01/20 04:10:11;;;;;;;1999.90;999.90;;;0.50;99.90;;;;;;5017006;28;20021;-78
2023/01/20 04:12:36;;;;;;;1999.90;999.90;;;0.50;99.90;;;;;;5015587;28;20497;-79
2023/01/20 04:15:04;;;;;;;1999.90;999.90;;;0.50;99.90;;;;;;5011887;28;20030;-78
2023/01/20 04:17:30;;;;;;;1999.90;999.90;;;0.50;99.90;;;;;;5012883;28;20032;-79
2023/01/20 04:20:05;;;;;;;1999.90;999.90;;;0.50;99.90;;;;;;5012890;28;20576;-78
2023/01/20 04:22:42;;;;;;;1999.90;999.90;;;0.50;99.90;;;;;;5013159;28;20025;-79
2023/01/20 04:25:25;;;;;;;1999.90;999.90;;;0.50;99.90;;;;;;5013414;28;20038;-79
2023/01/20 04:27:51;;;;;;;1999.90;999.90;;;0.50;99.90;;;;;;5013275;28;20487;-79
2023/01/20 04:30:17;;;;;;;1999.90;999.90;;;0.50;99.90;;;;;;5013134;28;20030;-78
2023/01/20 04:32:43;;;;;;;1999.90;999.90;;;0.50;99.90;;;;;;5013473;28;20117;-79
2023/01/20 04:35:13;;;;;;;1999.90;999.90;;;0.40;99.90;;;;;;5013257;28;20532;-79
2023/01/20 04:37:39;;;;;;;1999.90;999.90;;;0.40;99.90;;;;;;5013321;28;20097;-78
2023/01/20 04:40:05;;;;;;;1999.90;999.90;;;0.30;99.90;;;;;;5012926;28;20060;-79
2023/01/20 04:42:30;;;;;;;1999.90;999.90;;;0.30;99.90;;;;;;5012364;28;20068;-78
2023/01/20 04:44:56;;;;;;;1999.90;999.90;;;0.30;99.90;;;;;;5011883;28;20038;-78
2023/01/20 04:47:22;;;;;;;1999.90;999.90;;;0.20;99.90;;;;;;5011963;28;20108;-79
2023/01/20 04:49:47;;;;;;;1999.90;999.90;;;0.20;99.90;;;;;;5011769;28;20030;-79
2023/01/20 04:52:13;;;;;;;1999.90;999.90;;;0.20;99.90;;;;;;5011504;28;20026;-78
2023/01/20 04:54:39;;;;;;;1999.90;999.90;;;0.20;99.90;;;;;;5012839;28;20033;-79
2023/01/20 04:57:05;;;;;;;1999.90;999.90;;;0.30;99.90;;;;;;5012701;28;20022;-78
2023/01/20 04:59:30;;;;;;;1999.90;999.90;;;0.20;99.90;;;;;;5012654;28;20097;-79
2023/01/20 05:01:56;;;;;;;1999.90;999.90;;;0.20;99.90;;;;;;5012660;28;20061;-79
2023/01/20 05:04:22;;;;;;;1999.90;999.90;;;0.10;99.90;;;;;;5012717;28;20022;-78
2023/01/20 05:06:47;;;;;;;1999.90;999.90;;;0.10;99.90;;;;;;5012601;28;20077;-78
2023/01/20 05:09:14;;;;;;;1999.90;999.90;;;0.00;99.90;;;;;;5012669;28;20026;-79
2023/01/20 05:11:40;;;;;;;1999.90;999.90;;;0.00;99.90;;;;;;5011660;28;20030;-78
2023/01/20 05:14:06;;;;;;;1999.90;999.90;;;-0.10;99.90;;;;;;5012584;28;20029;-78
2023/01/20 05:16:32;;;;;;;1999.90;999.90;;;-0.10;99.90;;;;;;5011573;28;20030;-78
2023/01/20 05:18:59;;;;;;;1999.90;999.90;;;-0.10;99.90;;;;;;5013109;28;20026;-78
2023/01/20 05:21:24;;;;;;;1999.90;999.90;;;-0.10;99.90;;;;;;5011609;28;20497;-78
2023/01/20 05:23:53;;;;;;;1999.90;999.90;;;-0.10;99.90;;;;;;5012876;28;20036;-78
2023/01/20 05:26:19;;;;;;;1999.90;999.90;;;-0.10;99.90;;;;;;5012690;28;20061;-78
2023/01/20 05:28:45;;;;;;;1999.90;999.90;;;-0.20;99.90;;;;;;5012953;28;20030;-78
2023/01/20 05:31:10;;;;;;;1999.90;999.90;;;-0.10;99.90;;;;;;5011381;28;20040;-78
2023/01/20 05:33:38;;;;;;;1999.90;999.90;;;-0.20;99.90;;;;;;5012808;28;20109;-78
2023/01/20 05:36:08;;;;;;;1999.90;999.90;;;-0.20;99.90;;;;;;5012792;28;20014;-78
2023/01/20 05:38:34;;;;;;;1999.90;999.90;;;-0.30;99.90;;;;;;5012849;28;20513;-78
2023/01/20 05:41:05;;;;;;;1999.90;999.90;;;-0.30;99.90;;;;;;5014952;28;20026;-78
2023/01/20 05:43:31;;;;;;;1999.90;999.90;;;-0.30;99.90;;;;;;5016574;28;20064;-78
2023/01/20 05:45:57;;;;;;;1999.90;999.90;;;-0.30;99.90;;;;;;5015866;28;20069;-78
2023/01/20 05:48:23;;;;;;;1999.90;999.90;;;-0.40;99.90;;;;;;5014582;28;20057;-78
2023/01/20 05:50:48;;;;;;;1999.90;999.90;;;-0.50;99.90;;;;;;5016061;28;20068;-78
2023/01/20 05:53:14;;;;;;;1999.90;999.90;;;-0.50;99.90;;;;;;5014883;28;20022;-78
2023/01/20 05:55:40;;;;;;;1999.90;999.90;;;-0.50;99.90;;;;;;5016961;28;20033;-79
2023/01/20 05:58:06;;;;;;;1999.90;999.90;;;-0.50;99.90;;;;;;5016020;28;20029;-78
2023/01/20 06:00:32;;;;;;;1999.90;999.90;;;-0.50;99.90;;;;;;5016097;28;20030;-78
2023/01/20 06:02:58;;;;;;;1999.90;999.90;;;-0.60;99.90;;;;;;5014857;28;20037;-78
2023/01/20 06:05:24;;;;;;;1999.90;999.90;;;-0.60;99.90;;;;;;5016134;28;20554;-78
2023/01/20 06:07:49;;;;;;;1999.90;999.90;;;-0.50;99.90;;;;;;5015989;28;20057;-78
2023/01/20 06:10:16;;;;;;;1999.90;999.90;;;-0.60;99.90;;;;;;5015867;28;20112;-78
2023/01/20 06:12:42;;;;;;;1999.90;999.90;;;-0.60;99.90;;;;;;5014517;28;20038;-78
2023/01/20 06:15:08;;;;;;;1999.90;999.90;;;-0.60;99.90;;;;;;5015891;28;20397;-78
2023/01/20 06:17:34;;;;;;;1999.90;999.90;;;-0.60;99.90;;;;;;5015225;28;20038;-78
2023/01/20 06:20:00;;;;;;;1999.90;999.90;;;-0.60;99.90;;;;;;5015288;28;20034;-79
2023/01/20 06:22:26;;;;;;;1999.90;999.90;;;-0.70;99.90;;;;;;5015418;28;20026;-78
2023/01/20 06:24:52;;;;;;;1999.90;999.90;;;-0.70;99.90;;;;;;5015615;28;20037;-78
2023/01/20 06:27:18;;;;;;;1999.90;999.90;;;-0.70;99.90;;;;;;5015492;28;20030;-78
2023/01/20 06:29:44;;;;;;;1999.90;999.90;;;-0.70;99.90;;;;;;5015266;28;20041;-78
2023/01/20 06:32:10;;;;;;;1999.90;999.90;;;-0.70;99.90;;;;;;5014031;28;20030;-78
2023/01/20 06:34:36;;;;;;;1999.90;999.90;;;-0.70;99.90;;;;;;5015520;28;20552;-78
2023/01/20 06:37:02;;;;;;;1999.90;999.90;;;-0.70;99.90;;;;;;5015319;28;20025;-78
2023/01/20 06:39:28;;;;;;;1999.90;999.90;;;-0.70;99.90;;;;;;5015400;28;20026;-78
2023/01/20 06:41:57;;;;;;;1999.90;999.90;;;-0.80;99.90;;;;;;5014862;28;20602;-78
2023/01/20 06:44:24;;;;;;;1999.90;999.90;;;-0.80;99.90;;;;;;5014774;28;20408;-78
2023/01/20 06:46:50;;;;;;;1999.90;999.90;;;-0.90;99.90;;;;;;5014527;28;20014;-78
2023/01/20 06:49:16;;;;;;;1999.90;999.90;;;-0.90;99.90;;;;;;5013154;28;20042;-78
2023/01/20 06:51:42;;;;;;;1999.90;999.90;;;-1.00;99.90;;;;;;5013009;28;20029;-78
2023/01/20 06:54:07;;;;;;;1999.90;999.90;;;-0.90;99.90;;;;;;5014016;28;20038;-78
2023/01/20 06:56:33;;;;;;;1999.90;999.90;;;-0.90;99.90;;;;;;5019865;28;20166;-78
2023/01/20 06:58:59;;;;;;;1999.90;999.90;;;-1.10;99.90;;;;;;5014273;28;20033;-78
2023/01/20 07:01:27;;;;;;;1999.90;999.90;;;-1.10;99.90;;;;;;5013933;28;20026;-78
2023/01/20 07:03:53;;;;;;;1999.90;999.90;;;-1.00;99.90;;;;;;5014161;28;20037;-80
2023/01/20 07:06:31;;;;;;;1999.90;999.90;;;-1.10;99.90;;;;;;5012976;28;20029;-77
2023/01/20 07:08:58;;;;;;;1999.90;999.90;;;-1.10;99.90;;;;;;5029303;28;20079;-78
2023/01/20 07:11:23;;;;;;;1999.90;999.90;;;-1.10;99.90;;;;;;5030388;28;20111;-78
2023/01/20 07:13:49;;;;;;;1999.90;999.90;;;-1.10;99.90;;;;;;5023230;28;20069;-78
2023/01/20 07:16:30;;;;;;;1999.90;999.90;;;-1.10;99.90;;;;;;5005249;28;20153;-78
2023/01/20 07:18:56;;;;;;;1999.90;999.90;;;-1.10;99.90;;;;;;5018741;28;20044;-78
2023/01/20 07:21:22;;;;;;;1999.90;999.90;;;-1.10;99.90;;;;;;5013587;28;20085;-78
2023/01/20 07:23:48;;;;;;;1999.90;999.90;;;-1.10;99.90;;;;;;5016073;28;20038;-78
2023/01/20 07:26:17;;;;;;;1999.90;999.90;;;-1.10;99.90;;;;;;5011449;28;20053;-78
2023/01/20 07:28:42;;;;;;;1999.90;999.90;;;-1.10;99.90;;;;;;5022557;28;20036;-78
2023/01/20 07:31:14;;;;;;;1999.90;999.90;;;-1.20;99.90;;;;;;5012837;28;20021;-78
2023/01/20 07:33:40;;;;;;;1999.90;999.90;;;-1.20;99.90;;;;;;5012813;28;20485;-78
2023/01/20 07:36:07;;;;;;;1999.90;999.90;;;-1.20;99.90;;;;;;5013490;28;20033;-78
2023/01/20 07:38:33;;;;;;;1999.90;999.90;;;-1.20;99.90;;;;;;5011551;28;20464;-77
2023/01/20 07:41:00;;;;;;;1999.90;999.90;;;-1.30;99.90;;;;;;5011585;28;20033;-78
2023/01/20 07:43:27;;;;;;;1999.90;999.90;;;-1.20;99.90;;;;;;5011686;28;20034;-77
2023/01/20 07:46:03;;;;;;;1999.90;999.90;;;-1.20;99.90;;;;;;5014483;28;20350;-79
2023/01/20 07:48:31;;;;;;;1999.90;999.90;;;-1.20;99.90;;;;;;5010774;28;20101;-77
2023/01/20 07:51:01;;;;;;;1999.90;999.90;;;-1.20;99.90;;;;;;5015024;28;20030;-78
2023/01/20 07:53:32;;;;;;;1999.90;999.90;;;-1.20;99.90;;;;;;5030275;28;20159;-78
2023/01/20 07:56:08;;;;;;;1999.90;999.90;;;-1.20;99.90;;;;;;5031468;28;20029;-78
2023/01/20 07:58:34;;;;;;;1999.90;999.90;;;-1.10;99.90;;;;;;5008054;28;20077;-78
2023/01/20 08:01:14;;;;;;;1999.90;999.90;;;-1.10;99.90;;;;;;5013696;28;20476;-78
2023/01/20 08:03:39;;;;;;;1999.90;999.90;;;-1.00;99.90;;;;;;5016762;28;20045;-78
2023/01/20 08:06:07;;;;;;;1999.90;999.90;;;-1.00;99.90;;;;;;5013120;28;20029;-78
2023/01/20 08:08:33;;;;;;;1999.90;999.90;;;-0.90;99.90;;;;;;5022872;28;20030;-78
2023/01/20 08:11:00;;;;;;;1999.90;999.90;;;-0.90;99.90;;;;;;5019729;28;20084;-78
2023/01/20 08:13:26;;;;;;;1999.90;999.90;;;-0.90;99.90;;;;;;5030941;28;20025;-78
2023/01/20 08:15:52;;;;;;;1999.90;999.90;;;-0.90;99.90;;;;;;5032115;28;20029;-79
2023/01/20 08:18:17;;;;;;;1999.90;999.90;;;-0.90;99.90;;;;;;5003745;28;20404;-80
2023/01/20 08:20:43;;;;;;;1999.90;999.90;;;-0.80;99.90;;;;;;5009950;28;20541;-80
2023/01/20 08:23:09;;;;;;;1999.90;999.90;;;-0.70;99.90;;;;;;5010822;28;20501;-80
2023/01/20 08:25:34;;;;;;;1999.90;999.90;;;-0.70;99.90;;;;;;5010723;28;20022;-78
2023/01/20 08:28:00;;;;;;;1999.90;999.90;;;-0.60;99.90;;;;;;5011057;28;20105;-80
2023/01/20 08:30:25;;;;;;;1999.90;999.90;;;-0.50;99.90;;;;;;5012028;28;20069;-79
2023/01/20 08:32:51;;;;;;;1999.90;999.90;;;-0.40;99.90;;;;;;5024569;28;20045;-79
2023/01/20 08:35:17;;;;;;;1999.90;999.90;;;-0.30;99.90;;;;;;5014521;28;20025;-78
2023/01/20 08:37:43;;;;;;;1999.90;999.90;;;-0.30;99.90;;;;;;5010748;28;20033;-79
2023/01/20 08:40:09;;;;;;;1999.90;999.90;;;-0.10;99.90;;;;;;5011146;28;20028;-80
2023/01/20 08:42:37;;;;;;;1999.90;999.90;;;0.00;99.90;;;;;;5011705;28;20084;-79
2023/01/20 08:45:05;;;;;;;1999.90;999.90;;;0.20;99.90;;;;;;5010712;28;20045;-79
2023/01/20 08:47:34;;;;;;;1999.90;999.90;;;0.80;99.90;;;;;;5021234;28;20072;-79
2023/01/20 08:49:59;;;;;;;1999.90;999.90;;;1.20;99.90;;;;;;4999129;28;20049;-79
2023/01/20 08:52:26;;;;;;;1999.90;999.90;;;1.10;99.90;;;;;;5004973;28;20034;-80
2023/01/20 08:54:52;;;;;;;1999.90;999.90;;;0.70;99.90;;;;;;5003588;28;20052;-81
2023/01/20 08:57:18;;;;;;;1999.90;999.90;;;0.40;99.90;;;;;;5010294;28;20044;-80
2023/01/20 08:59:45;;;;;;;1999.90;999.90;;;0.20;99.90;;;;;;5009933;28;20030;-80
2023/01/20 09:02:11;;;;;;;1999.90;999.90;;;0.10;99.90;;;;;;5009236;28;20026;-80
2023/01/20 09:04:37;;;;;;;1999.90;999.90;;;0.10;99.90;;;;;;5010735;28;20057;-80
2023/01/20 09:07:03;;;;;;;1999.90;999.90;;;0.20;99.90;;;;;;5008935;28;20428;-80
2023/01/20 09:09:29;;;;;;;1999.90;999.90;;;0.20;99.90;;;;;;5006923;28;20018;-80
2023/01/20 09:11:55;;;;;;;1999.90;999.90;;;0.30;99.90;;;;;;5010888;28;20095;-80
2023/01/20 09:14:22;;;;;;;1999.90;999.90;;;0.20;99.90;;;;;;5012037;28;20584;-80
2023/01/20 09:16:48;;;;;;;1999.90;999.90;;;0.20;99.90;;;;;;5018243;28;20104;-80
2023/01/20 09:19:14;;;;;;;1999.90;999.90;;;0.10;99.90;;;;;;5011311;28;20156;-78
2023/01/20 09:21:41;;;;;;;1999.90;999.90;;;0.10;99.90;;;;;;5017461;28;20531;-79
2023/01/20 09:24:07;;;;;;;1999.90;999.90;;;0.00;99.90;;;;;;5020868;28;20106;-78
2023/01/20 09:26:37;;;;;;;1999.90;999.90;;;0.00;99.90;;;;;;5029092;28;20425;-78
2023/01/20 09:29:09;;;;;;;1999.90;999.90;;;0.00;99.90;;;;;;5029002;28;20045;-78
2023/01/20 09:31:44;;;;;;;1999.90;999.90;;;0.20;99.90;;;;;;5006470;28;20038;-80
2023/01/20 09:34:17;;;;;;;1999.90;999.90;;;0.10;99.90;;;;;;5012270;28;20038;-80
2023/01/20 09:36:44;;;;;;;1999.90;999.90;;;0.20;99.90;;;;;;5027533;28;20038;-81
2023/01/20 09:45:03;;;;;;;1999.90;999.90;;;0.50;99.90;;;;;;5019439;28;20073;-81
2023/01/20 09:47:40;;;;;;;1999.90;999.90;;;0.70;99.90;;;;;;5016389;28;20056;-80
2023/01/20 09:53:33;;;;;;;1999.90;999.90;;;0.90;99.90;;;;;;5008912;28;20096;-81
2023/01/20 09:56:06;;;;;;;1999.90;999.90;;;0.70;99.90;;;;;;5012924;28;20501;-79
2023/01/20 09:58:41;;;;;;;1999.90;999.90;;;0.60;99.90;;;;;;5014046;28;20029;-81
2023/01/20 10:01:17;;;;;;;1999.90;999.90;;;0.60;99.90;;;;;;5018137;28;20026;-78
2023/01/20 10:03:51;;;;;;;1999.90;999.90;;;0.60;99.90;;;;;;5017356;28;20029;-81
2023/01/20 10:06:48;;;;;;;1999.90;999.90;;;0.60;99.90;;;;;;5015702;28;20334;-81
2023/01/20 10:09:26;;;;;;;1999.90;999.90;;;0.60;99.90;;;;;;5031178;28;20064;-80
2023/01/20 10:11:59;;;;;;;1999.90;999.90;;;0.80;99.90;;;;;;5034727;28;20030;-79
2023/01/20 10:14:37;;;;;;;1999.90;999.90;;;0.90;99.90;;;;;;5027817;28;20457;-80
2023/01/20 10:17:11;;;;;;;1999.90;999.90;;;1.20;99.90;;;;;;5023723;28;20029;-80
2023/01/20 10:20:11;;;;;;;1999.90;999.90;;;1.50;99.90;;;;;;5021906;28;20022;-79
2023/01/20 10:22:40;;;;;;;1999.90;999.90;;;1.60;99.90;;;;;;5014212;28;20477;-79
2023/01/20 10:25:17;;;;;;;1999.90;999.90;;;1.70;99.90;;;;;;5013324;28;20026;-79
2023/01/20 10:27:53;;;;;;;1999.90;999.90;;;1.60;99.90;;;;;;5012572;28;20038;-79
2023/01/20 10:30:22;;;;;;;1999.90;999.90;;;1.50;99.90;;;;;;5015509;28;20022;-78
2023/01/20 10:32:57;;;;;;;1999.90;999.90;;;1.60;99.90;;;;;;5013390;28;20508;-79
2023/01/20 10:35:28;;;;;;;1999.90;999.90;;;1.60;99.90;;;;;;5018499;28;20038;-78
2023/01/20 10:37:57;;;;;;;1999.90;999.90;;;1.70;99.90;;;;;;5012255;28;20053;-79
2023/01/20 10:40:28;;;;;;;1999.90;999.90;;;1.60;99.90;;;;;;5013714;28;20030;-79
2023/01/20 10:43:00;;;;;;;1999.90;999.90;;;1.50;99.90;;;;;;5010310;28;20137;-80
2023/01/20 10:46:08;;;;;;;1999.90;999.90;;;1.40;99.90;;;;;;5009388;28;20057;-79
2023/01/20 10:48:58;;;;;;;1999.90;999.90;;;1.30;99.90;;;;;;5031879;28;20043;-79
2023/01/20 10:51:45;;;;;;;1999.90;999.90;;;1.50;99.90;;;;;;5001874;28;20018;-79
2023/01/20 10:54:39;;;;;;;1999.90;999.90;;;1.70;99.90;;;;;;5012420;28;20061;-80
2023/01/20 10:57:12;;;;;;;1999.90;999.90;;;1.60;99.90;;;;;;5014389;28;20025;-80
2023/01/20 10:59:59;;;;;;;1999.90;999.90;;;1.70;99.90;;;;;;5010751;28;20029;-78
2023/01/20 11:02:29;;;;;;;1999.90;999.90;;;1.70;99.90;;;;;;5020132;28;20061;-78
2023/01/20 11:05:08;;;;;;;1999.90;999.90;;;1.50;99.90;;;;;;5012170;28;20028;-78
2023/01/20 11:07:34;;;;;;;1999.90;999.90;;;1.50;99.90;;;;;;5011943;28;20034;-81
2023/01/20 11:10:16;;;;;;;1999.90;999.90;;;1.50;99.90;;;;;;5012523;28;20026;-82
2023/01/20 11:12:44;;;;;;;1999.90;999.90;;;1.80;99.90;;;;;;5011734;28;20544;-81
2023/01/20 11:15:19;;;;;;;1999.90;999.90;;;1.90;99.90;;;;;;5032427;28;20067;-80
2023/01/20 11:17:46;;;;;;;1999.90;999.90;;;1.80;99.90;;;;;;5019801;28;20504;-79
2023/01/20 11:20:20;;;;;;;1999.90;999.90;;;2.10;99.90;;;;;;5011427;28;20505;-80
2023/01/20 11:22:48;;;;;;;1999.90;999.90;;;2.10;99.90;;;;;;5023915;28;20056;-79
2023/01/20 11:25:26;;;;;;;1999.90;999.90;;;2.50;99.90;;;;;;5023996;28;20034;-79
2023/01/20 11:27:53;;;;;;;1999.90;999.90;;;2.60;99.90;;;;;;5011036;28;20042;-79
2023/01/20 11:30:27;;;;;;;1999.90;999.90;;;2.60;99.90;;;;;;5012116;28;20034;-80
2023/01/20 11:33:15;;;;;;;1999.90;999.90;;;2.80;99.90;;;;;;5011351;28;20038;-79
2023/01/20 11:35:59;;;;;;;1999.90;999.90;;;3.20;99.90;;;;;;5010473;28;20560;-78
2023/01/20 11:38:43;;;;;;;1999.90;999.90;;;3.40;99.90;;;;;;5010912;28;20130;-78
2023/01/20 11:41:38;;;;;;;1999.90;999.90;;;3.40;99.90;;;;;;5011941;28;20484;-79
2023/01/20 11:44:05;;;;;;;1999.90;999.90;;;3.40;99.90;;;;;;5006188;28;20064;-79
2023/01/20 11:46:33;;;;;;;1999.90;999.90;;;3.70;99.90;;;;;;5010799;28;20026;-78
2023/01/20 11:49:13;;;;;;;1999.90;999.90;;;3.80;99.90;;;;;;5011347;28;20034;-77
2023/01/20 11:51:54;;;;;;;1999.90;999.90;;;3.60;99.90;;;;;;5009374;28;20025;-77
2023/01/20 11:54:25;;;;;;;1999.90;999.90;;;3.50;99.90;;;;;;5005091;28;20104;-76
2023/01/20 11:57:03;;;;;;;1999.90;999.90;;;3.20;99.90;;;;;;5009789;28;20110;-76
2023/01/20 11:59:31;;;;;;;1999.90;999.90;;;3.00;99.90;;;;;;5010733;28;20026;-76
2023/01/20 12:02:07;;;;;;;1999.90;999.90;;;2.90;99.90;;;;;;5009728;28;20029;-77
2023/01/20 12:04:42;;;;;;;1999.90;999.90;;;2.80;99.90;;;;;;5007455;28;20092;-79
2023/01/20 12:07:14;;;;;;;1999.90;999.90;;;2.80;99.90;;;;;;5010130;28;20029;-79
2023/01/20 12:09:45;;;;;;;1999.90;999.90;;;2.80;99.90;;;;;;5008278;28;20124;-79
2023/01/20 12:12:35;;;;;;;1999.90;999.90;;;2.50;99.90;;;;;;5013328;28;20030;-77
2023/01/20 12:15:17;;;;;;;1999.90;999.90;;;2.70;99.90;;;;;;5016361;28;20053;-79
2023/01/20 12:18:04;;;;;;;1999.90;999.90;;;2.70;99.90;;;;;;5010457;28;20108;-78
2023/01/20 12:20:54;;;;;;;1999.90;999.90;;;2.70;99.90;;;;;;5011175;28;20056;-78
2023/01/20 12:23:52;;;;;;;1999.90;999.90;;;3.00;99.90;;;;;;5009927;28;20166;-79
2023/01/20 12:26:20;;;;;;;1999.90;999.90;;;3.40;99.90;;;;;;5010229;28;20046;-79
2023/01/20 12:28:58;;;;;;;1999.90;999.90;;;3.50;99.90;;;;;;5016434;28;20037;-80
2023/01/20 12:31:24;;;;;;;1999.90;999.90;;;3.40;99.90;;;;;;5015643;28;20085;-79